createdAt,value
2017-04-27T00:01:03.697Z,3.15
2017-04-27T00:02:16.223Z,3.26
2017-04-27T00:03:28.739Z,3.3
2017-04-27T00:04:40.970Z,3.21
2017-04-27T00:05:53.470Z,3.27
2017-04-27T00:07:05.981Z,3.33
2017-04-27T00:08:18.524Z,3.27
2017-04-27T00:09:31.052Z,3.27
2017-04-27T00:10:43.573Z,3.3
2017-04-27T00:11:56.114Z,3.43
2017-04-27T00:13:08.631Z,3.45
2017-04-27T00:14:20.863Z,3.43
2017-04-27T00:15:33.403Z,3.46
2017-04-27T00:16:45.927Z,3.46
2017-04-27T00:17:58.453Z,3.49
2017-04-27T00:19:10.989Z,3.49
2017-04-27T00:20:23.844Z,3.61
2017-04-27T00:21:36.361Z,3.52
2017-04-27T00:22:48.899Z,3.59
2017-04-27T00:24:01.427Z,3.61
2017-04-27T00:25:13.653Z,3.49
2017-04-27T00:26:26.429Z,3.55
2017-04-27T00:27:38.946Z,3.64
2017-04-27T00:28:51.440Z,3.67
2017-04-27T00:30:03.954Z,3.63
2017-04-27T00:31:16.499Z,3.67
2017-04-27T00:32:29.069Z,3.66
2017-04-27T00:33:41.595Z,3.7
2017-04-27T00:34:54.112Z,3.63
2017-04-27T00:36:06.637Z,3.67
2017-04-27T00:37:19.161Z,3.66
2017-04-27T00:38:31.699Z,3.73
2017-04-27T00:39:44.195Z,3.7
2017-04-27T00:40:56.724Z,3.73
2017-04-27T00:42:09.287Z,3.68
2017-04-27T00:43:21.533Z,3.73
2017-04-27T00:44:34.036Z,3.74
2017-04-27T00:45:46.584Z,3.71
2017-04-27T00:46:59.129Z,3.76
2017-04-27T00:48:11.670Z,3.64
2017-04-27T00:49:24.192Z,3.67
2017-04-27T00:50:36.444Z,3.59
2017-04-27T00:51:48.964Z,3.67
2017-04-27T00:53:01.480Z,3.66
2017-04-27T00:54:13.677Z,3.53
2017-04-27T00:55:26.165Z,3.59
2017-04-27T00:56:38.385Z,3.49
2017-04-27T00:57:50.918Z,3.52
2017-04-27T00:59:03.437Z,3.48
2017-04-27T01:00:15.998Z,3.49
2017-04-27T01:01:28.531Z,3.45
2017-04-27T01:02:41.074Z,3.36
2017-04-27T01:03:53.598Z,3.41
2017-04-27T01:05:05.788Z,3.27
2017-04-27T01:06:18.035Z,3.24
2017-04-27T01:07:30.534Z,3.26
2017-04-27T01:08:43.051Z,3.36
2017-04-27T01:09:55.568Z,3.21
2017-04-27T01:11:07.797Z,3.22
2017-04-27T01:12:20.020Z,3.13
2017-04-27T01:13:32.580Z,3.12
2017-04-27T01:14:45.361Z,3.11
2017-04-27T01:15:57.878Z,3.01
2017-04-27T01:17:10.391Z,3.09
2017-04-27T01:18:22.886Z,3.03
2017-04-27T01:19:35.417Z,3.09
2017-04-27T01:20:47.960Z,3
2017-04-27T01:22:00.474Z,3.01
2017-04-27T01:23:12.983Z,3.05
2017-04-27T01:24:25.491Z,3.03
2017-04-27T01:25:38.002Z,2.85
2017-04-27T01:26:50.542Z,2.94
2017-04-27T01:28:03.106Z,2.9
2017-04-27T01:29:15.635Z,2.82
2017-04-27T01:30:28.170Z,2.79
2017-04-27T01:31:40.727Z,2.79
2017-04-27T01:32:53.262Z,2.75
2017-04-27T01:34:05.784Z,2.76
2017-04-27T01:35:17.742Z,2.72
2017-04-27T01:36:30.274Z,2.73
2017-04-27T01:37:42.804Z,2.7
2017-04-27T01:38:55.304Z,2.62
2017-04-27T01:40:07.816Z,2.61
2017-04-27T01:41:20.315Z,2.62
2017-04-27T01:42:32.839Z,2.54
2017-04-27T01:43:45.358Z,2.52
2017-04-27T01:44:57.888Z,2.52
2017-04-27T01:46:10.427Z,2.52
2017-04-27T01:47:23.212Z,2.54
2017-04-27T01:48:35.734Z,2.52
2017-04-27T01:49:47.980Z,2.44
2017-04-27T01:51:00.483Z,2.44
2017-04-27T01:52:12.399Z,2.44
2017-04-27T01:53:24.927Z,2.34
2017-04-27T01:54:37.445Z,2.37
2017-04-27T01:55:49.984Z,2.28
2017-04-27T01:57:02.516Z,2.33
2017-04-27T01:58:14.752Z,2.33
2017-04-27T01:59:27.283Z,2.33
2017-04-27T02:00:39.518Z,2.21
2017-04-27T02:01:52.050Z,2.22
2017-04-27T02:03:04.562Z,2.19
2017-04-27T02:04:17.092Z,2.18
2017-04-27T02:05:29.630Z,2.12
2017-04-27T02:06:41.830Z,2.16
2017-04-27T02:07:54.057Z,2.14
2017-04-27T02:09:06.829Z,2.04
2017-04-27T02:10:19.385Z,2
2017-04-27T02:11:31.605Z,2.01
2017-04-27T02:12:44.111Z,1.98
2017-04-27T02:13:56.649Z,2
2017-04-27T02:15:09.217Z,2.03
2017-04-27T02:16:21.727Z,2
2017-04-27T02:17:34.305Z,1.89
2017-04-27T02:18:46.813Z,1.93
2017-04-27T02:19:59.352Z,1.82
2017-04-27T02:21:11.907Z,1.84
2017-04-27T02:22:24.404Z,1.81
2017-04-27T02:23:36.641Z,1.74
2017-04-27T02:24:49.186Z,1.71
2017-04-27T02:26:01.718Z,1.7
2017-04-27T02:27:14.252Z,1.63
2017-04-27T02:28:26.473Z,1.68
2017-04-27T02:29:38.994Z,1.58
2017-04-27T02:30:51.823Z,1.6
2017-04-27T02:32:04.323Z,1.61
2017-04-27T02:33:16.233Z,1.58
2017-04-27T02:34:28.756Z,1.52
2017-04-27T02:35:41.252Z,1.53
2017-04-27T02:36:53.777Z,1.49
2017-04-27T02:38:06.273Z,1.52
2017-04-27T02:39:18.823Z,1.48
2017-04-27T02:40:31.046Z,1.45
2017-04-27T02:41:43.807Z,1.45
2017-04-27T02:42:56.361Z,1.39
2017-04-27T02:44:08.928Z,1.38
2017-04-27T02:45:21.474Z,1.36
2017-04-27T02:46:33.965Z,1.36
2017-04-27T02:47:46.475Z,1.27
2017-04-27T02:48:58.983Z,1.27
2017-04-27T02:50:11.511Z,1.32
2017-04-27T02:51:24.031Z,1.25
2017-04-27T02:52:36.552Z,1.3
2017-04-27T02:53:48.462Z,1.27
2017-04-27T02:55:01.015Z,1.2
2017-04-27T02:56:12.937Z,1.34
2017-04-27T02:57:25.485Z,1.31
2017-04-27T02:58:37.704Z,1.2
2017-04-27T02:59:50.259Z,1.2
2017-04-27T03:01:02.795Z,1.18
2017-04-27T03:02:15.020Z,1.24
2017-04-27T03:03:27.868Z,1.27
2017-04-27T03:04:40.386Z,1.06
2017-04-27T03:05:52.899Z,1.16
2017-04-27T03:07:05.143Z,1.2
2017-04-27T03:08:17.051Z,1.16
2017-04-27T03:09:29.563Z,1.16
2017-04-27T03:10:42.060Z,1.18
2017-04-27T03:11:54.279Z,1.09
2017-04-27T03:13:06.825Z,1.06
2017-04-27T03:14:19.348Z,1.09
2017-04-27T03:15:31.888Z,1.03
2017-04-27T03:16:44.414Z,1.03
2017-04-27T03:17:56.934Z,1.06
2017-04-27T03:19:09.468Z,1.04
2017-04-27T03:20:21.681Z,1.03
2017-04-27T03:21:34.197Z,1.03
2017-04-27T03:22:46.719Z,1.09
2017-04-27T03:23:58.945Z,1.04
2017-04-27T03:25:11.469Z,1.04
2017-04-27T03:26:23.970Z,1.04
2017-04-27T03:27:36.523Z,1.02
2017-04-27T03:28:49.052Z,0.96
2017-04-27T03:30:01.594Z,1
2017-04-27T03:31:14.076Z,0.92
2017-04-27T03:32:26.613Z,0.96
2017-04-27T03:33:39.153Z,0.96
2017-04-27T03:34:51.097Z,0.94
2017-04-27T03:36:03.644Z,0.86
2017-04-27T03:37:16.169Z,0.85
2017-04-27T03:38:28.745Z,0.89
2017-04-27T03:39:41.294Z,0.84
2017-04-27T03:40:53.814Z,0.81
2017-04-27T03:42:06.352Z,0.76
2017-04-27T03:43:18.633Z,0.84
2017-04-27T03:44:31.166Z,0.76
2017-04-27T03:45:43.672Z,0.77
2017-04-27T03:46:56.490Z,0.78
2017-04-27T03:48:09.017Z,0.74
2017-04-27T03:49:21.549Z,0.71
2017-04-27T03:50:34.132Z,0.77
2017-04-27T03:51:46.670Z,0.73
2017-04-27T03:52:59.446Z,0.77
2017-04-27T03:54:11.970Z,0.77
2017-04-27T03:55:24.536Z,0.76
2017-04-27T03:56:36.760Z,0.71
2017-04-27T03:57:49.024Z,0.73
2017-04-27T03:59:01.571Z,0.74
2017-04-27T04:00:14.091Z,0.74
2017-04-27T04:01:26.591Z,0.68
2017-04-27T04:02:39.116Z,0.74
2017-04-27T04:03:51.636Z,0.64
2017-04-27T04:05:04.146Z,0.71
2017-04-27T04:06:16.678Z,0.74
2017-04-27T04:07:28.920Z,0.74
2017-04-27T04:08:41.759Z,0.74
2017-04-27T04:09:54.312Z,0.73
2017-04-27T04:11:06.838Z,0.74
2017-04-27T04:12:19.056Z,0.74
2017-04-27T04:13:31.559Z,0.7
2017-04-27T04:14:44.346Z,0.7
2017-04-27T04:15:56.867Z,0.73
2017-04-27T04:17:09.408Z,0.76
2017-04-27T04:18:21.338Z,0.73
2017-04-27T04:19:33.576Z,0.77
2017-04-27T04:20:46.101Z,0.84
2017-04-27T04:21:58.621Z,0.78
2017-04-27T04:23:10.846Z,0.77
2017-04-27T04:24:22.758Z,0.74
2017-04-27T04:25:35.262Z,0.78
2017-04-27T04:26:47.780Z,0.78
2017-04-27T04:28:00.005Z,0.78
2017-04-27T04:29:12.572Z,0.76
2017-04-27T04:30:25.093Z,0.73
2017-04-27T04:31:37.634Z,0.84
2017-04-27T04:32:49.863Z,0.89
2017-04-27T04:34:02.424Z,0.85
2017-04-27T04:35:14.631Z,0.86
2017-04-27T04:36:27.150Z,0.88
2017-04-27T04:37:39.698Z,0.92
2017-04-27T04:38:52.236Z,1.04
2017-04-27T04:40:04.763Z,1.02
2017-04-27T04:41:17.277Z,1.07
2017-04-27T04:42:29.505Z,1.06
2017-04-27T04:43:42.026Z,1.2
2017-04-27T04:44:54.554Z,1.2
2017-04-27T04:46:07.088Z,1.24
2017-04-27T04:47:19.028Z,1.28
2017-04-27T04:48:31.524Z,1.31
2017-04-27T04:49:44.071Z,1.39
2017-04-27T04:50:56.255Z,1.45
2017-04-27T04:52:08.795Z,1.52
2017-04-27T04:53:21.033Z,1.49
2017-04-27T04:54:33.533Z,1.61
2017-04-27T04:55:46.050Z,1.63
2017-04-27T04:56:58.558Z,1.67
2017-04-27T04:58:11.090Z,1.76
2017-04-27T04:59:23.599Z,1.82
2017-04-27T05:00:35.794Z,1.98
2017-04-27T05:01:48.382Z,1.89
2017-04-27T05:03:01.225Z,1.98
2017-04-27T05:04:13.471Z,1.86
2017-04-27T05:05:25.995Z,2.05
2017-04-27T05:06:38.523Z,2.1
2017-04-27T05:07:51.062Z,2.14
2017-04-27T05:09:03.608Z,2.12
2017-04-27T05:10:15.828Z,2.21
2017-04-27T05:11:28.355Z,2.26
2017-04-27T05:12:40.557Z,2.37
2017-04-27T05:13:53.101Z,2.33
2017-04-27T05:15:05.634Z,2.44
2017-04-27T05:16:17.563Z,2.46
2017-04-27T05:17:30.058Z,2.52
2017-04-27T05:18:42.330Z,2.61
2017-04-27T05:19:54.876Z,2.75
2017-04-27T05:21:07.371Z,2.77
2017-04-27T05:22:19.570Z,2.85
2017-04-27T05:23:32.099Z,2.93
2017-04-27T05:24:44.635Z,2.98
2017-04-27T05:25:56.858Z,2.95
2017-04-27T05:27:09.404Z,3
2017-04-27T05:28:21.968Z,3.06
2017-04-27T05:29:34.521Z,3.11
2017-04-27T05:30:46.739Z,3.05
2017-04-27T05:31:59.263Z,3.13
2017-04-27T05:33:11.851Z,3.22
2017-04-27T05:34:24.079Z,3.21
2017-04-27T05:35:36.276Z,3.24
2017-04-27T05:36:48.818Z,3.33
2017-04-27T05:38:01.334Z,3.27
2017-04-27T05:39:13.859Z,3.43
2017-04-27T05:40:25.773Z,3.45
2017-04-27T05:41:38.022Z,3.48
2017-04-27T05:42:50.569Z,3.48
2017-04-27T05:44:03.115Z,3.53
2017-04-27T05:45:14.743Z,3.61
2017-04-27T05:46:27.516Z,3.68
2017-04-27T05:47:40.031Z,3.76
2017-04-27T05:48:52.548Z,3.82
2017-04-27T05:50:04.790Z,3.76
2017-04-27T05:51:17.012Z,3.85
2017-04-27T05:52:29.532Z,3.85
2017-04-27T05:53:41.754Z,3.85
2017-04-27T05:54:54.274Z,3.85
2017-04-27T05:56:06.821Z,3.85
2017-04-27T05:57:19.346Z,3.86
2017-04-27T05:58:31.594Z,3.88
2017-04-27T05:59:44.116Z,3.88
2017-04-27T06:00:56.615Z,3.95
2017-04-27T06:02:09.135Z,4.03
2017-04-27T06:03:21.655Z,4.04
2017-04-27T06:04:33.902Z,4.04
2017-04-27T06:05:46.437Z,4.07
2017-04-27T06:06:58.970Z,4.02
2017-04-27T06:08:11.208Z,4.14
2017-04-27T06:09:23.437Z,4.16
2017-04-27T06:10:35.671Z,4.22
2017-04-27T06:11:48.204Z,4.16
2017-04-27T06:13:00.423Z,4.36
2017-04-27T06:14:12.962Z,4.31
2017-04-27T06:15:25.507Z,4.32
2017-04-27T06:16:38.038Z,4.31
2017-04-27T06:17:50.557Z,4.4
2017-04-27T06:19:03.074Z,4.45
2017-04-27T06:20:15.316Z,4.53
2017-04-27T06:21:27.846Z,4.58
2017-04-27T06:22:40.067Z,4.74
2017-04-27T06:23:52.613Z,4.79
2017-04-27T06:25:05.133Z,4.92
2017-04-27T06:26:17.650Z,5.02
2017-04-27T06:27:30.174Z,5.13
2017-04-27T06:28:42.717Z,5.18
2017-04-27T06:29:55.480Z,5.26
2017-04-27T06:31:07.704Z,5.36
2017-04-27T06:32:20.247Z,5.4
2017-04-27T06:33:32.775Z,5.65
2017-04-27T06:34:45.297Z,5.56
2017-04-27T06:35:57.834Z,5.7
2017-04-27T06:37:10.364Z,5.95
2017-04-27T06:38:22.910Z,6.13
2017-04-27T06:39:35.431Z,6.56
2017-04-27T06:40:48.225Z,6.96
2017-04-27T06:42:00.769Z,7.39
2017-04-27T06:43:12.984Z,7.66
2017-04-27T06:44:25.209Z,8.13
2017-04-27T06:45:37.445Z,8.38
2017-04-27T06:46:49.981Z,8.81
2017-04-27T06:48:02.497Z,9.09
2017-04-27T06:49:14.729Z,9.29
2017-04-27T06:50:27.274Z,9.73
2017-04-27T06:51:39.824Z,9.99
2017-04-27T06:52:52.384Z,10.3
2017-04-27T06:54:04.349Z,10.71
2017-04-27T06:55:16.577Z,10.98
2017-04-27T06:56:29.119Z,11.26
2017-04-27T06:57:41.667Z,11.6
2017-04-27T06:58:54.220Z,11.86
2017-04-27T07:00:06.465Z,12.21
2017-04-27T07:01:19.036Z,12.57
2017-04-27T07:02:31.571Z,12.75
2017-04-27T07:03:44.077Z,13.05
2017-04-27T07:04:56.349Z,13.23
2017-04-27T07:06:08.612Z,13.43
2017-04-27T07:07:21.178Z,13.57
2017-04-27T07:08:33.736Z,13.5
2017-04-27T07:09:46.274Z,13.6
2017-04-27T07:10:58.499Z,13.68
2017-04-27T07:12:11.049Z,13.78
2017-04-27T07:13:23.308Z,13.91
2017-04-27T07:14:35.862Z,13.87
2017-04-27T07:15:48.101Z,14.05
2017-04-27T07:17:00.654Z,14.18
2017-04-27T07:18:12.901Z,14.26
2017-04-27T07:19:25.425Z,14.49
2017-04-27T07:20:37.687Z,14.53
2017-04-27T07:21:50.231Z,14.55
2017-04-27T07:23:02.480Z,14.51
2017-04-27T07:24:15.029Z,14.63
2017-04-27T07:25:27.597Z,14.73
2017-04-27T07:26:40.113Z,14.87
2017-04-27T07:27:52.342Z,15
2017-04-27T07:29:04.880Z,15.11
2017-04-27T07:30:17.414Z,15.1
2017-04-27T07:31:29.656Z,15.32
2017-04-27T07:32:42.197Z,15.39
2017-04-27T07:33:54.773Z,15.44
2017-04-27T07:35:07.342Z,15.59
2017-04-27T07:36:19.866Z,15.62
2017-04-27T07:37:32.463Z,15.65
2017-04-27T07:38:44.727Z,15.67
2017-04-27T07:39:57.281Z,15.76
2017-04-27T07:41:09.822Z,15.9
2017-04-27T07:42:21.772Z,15.88
2017-04-27T07:43:34.009Z,15.96
2017-04-27T07:44:46.555Z,16.09
2017-04-27T07:45:59.102Z,16.21
2017-04-27T07:47:11.631Z,16.22
2017-04-27T07:48:23.902Z,16.39
2017-04-27T07:49:36.447Z,16.43
2017-04-27T07:50:48.989Z,16.57
2017-04-27T07:52:01.537Z,16.61
2017-04-27T07:53:14.081Z,16.74
2017-04-27T07:54:26.608Z,16.83
2017-04-27T07:55:39.175Z,17.01
2017-04-27T07:56:51.697Z,17.12
2017-04-27T07:58:04.261Z,17.24
2017-04-27T07:59:16.193Z,17.27
2017-04-27T08:00:28.739Z,17.42
2017-04-27T08:01:41.278Z,17.35
2017-04-27T08:02:53.804Z,17.22
2017-04-27T08:04:06.373Z,17.17
2017-04-27T08:05:18.932Z,17.05
2017-04-27T08:06:31.479Z,16.82
2017-04-27T08:07:44.056Z,16.59
2017-04-27T08:08:56.631Z,16.55
2017-04-27T08:10:09.201Z,16.41
2017-04-27T08:11:21.174Z,16.32
2017-04-27T08:12:33.712Z,16.37
2017-04-27T08:13:46.282Z,16.26
2017-04-27T08:14:58.799Z,16.1
2017-04-27T08:16:11.029Z,15.99
2017-04-27T08:17:23.545Z,15.81
2017-04-27T08:18:35.740Z,15.76
2017-04-27T08:19:47.984Z,15.57
2017-04-27T08:21:00.516Z,15.57
2017-04-27T08:22:12.760Z,15.36
2017-04-27T08:23:25.304Z,15.29
2017-04-27T08:24:37.520Z,15.11
2017-04-27T08:25:49.746Z,15.1
2017-04-27T08:27:02.284Z,14.94
2017-04-27T08:28:14.816Z,14.99
2017-04-27T08:29:27.092Z,14.85
2017-04-27T08:30:39.629Z,14.79
2017-04-27T08:31:52.154Z,14.73
2017-04-27T08:33:04.688Z,14.48
2017-04-27T08:34:16.944Z,14.41
2017-04-27T08:35:29.181Z,14.31
2017-04-27T08:36:41.726Z,14.25
2017-04-27T08:37:54.277Z,14.11
2017-04-27T08:39:06.823Z,14.01
2017-04-27T08:40:19.052Z,13.94
2017-04-27T08:41:31.601Z,13.7
2017-04-27T08:42:43.834Z,13.55
2017-04-27T08:43:56.062Z,13.54
2017-04-27T08:45:08.280Z,13.46
2017-04-27T08:46:20.819Z,13.45
2017-04-27T08:47:33.369Z,13.57
2017-04-27T08:48:45.921Z,13.57
2017-04-27T08:49:58.460Z,13.52
2017-04-27T08:51:10.677Z,13.55
2017-04-27T08:52:22.948Z,13.49
2017-04-27T08:53:35.495Z,13.5
2017-04-27T08:54:48.048Z,13.6
2017-04-27T08:56:00.589Z,13.61
2017-04-27T08:57:12.831Z,13.52
2017-04-27T08:58:24.807Z,13.43
2017-04-27T08:59:36.773Z,13.43
2017-04-27T09:00:49.304Z,13.37
2017-04-27T09:02:01.866Z,13.37
2017-04-27T09:03:14.460Z,13.36
2017-04-27T09:04:26.408Z,13.4
2017-04-27T09:05:38.964Z,13.37
2017-04-27T09:06:51.502Z,13.4
2017-04-27T09:08:03.745Z,13.47
2017-04-27T09:09:15.654Z,13.42
2017-04-27T09:10:28.199Z,13.4
2017-04-27T09:11:40.736Z,13.45
2017-04-27T09:12:53.290Z,13.42
2017-04-27T09:14:05.227Z,13.45
2017-04-27T09:15:16.874Z,13.39
2017-04-27T09:16:29.117Z,13.37
2017-04-27T09:17:41.673Z,13.37
2017-04-27T09:18:54.216Z,13.33
2017-04-27T09:20:06.436Z,13.42
2017-04-27T09:21:18.076Z,13.49
2017-04-27T09:22:30.656Z,13.31
2017-04-27T09:23:42.294Z,13.28
2017-04-27T09:24:54.544Z,13.13
2017-04-27T09:26:07.066Z,13.26
2017-04-27T09:27:19.585Z,13.27
2017-04-27T09:28:31.808Z,13.21
2017-04-27T09:29:44.375Z,13.26
2017-04-27T09:30:56.906Z,13.13
2017-04-27T09:32:09.450Z,13.21
2017-04-27T09:33:21.970Z,13.13
2017-04-27T09:34:34.506Z,13.21
2017-04-27T09:35:47.028Z,13.2
2017-04-27T09:36:59.259Z,13.24
2017-04-27T09:38:11.821Z,13.31
2017-04-27T09:39:24.376Z,13.42
2017-04-27T09:40:36.893Z,13.46
2017-04-27T09:41:49.168Z,13.47
2017-04-27T09:43:01.709Z,13.6
2017-04-27T09:44:13.954Z,13.6
2017-04-27T09:45:26.179Z,13.6
2017-04-27T09:46:38.418Z,13.5
2017-04-27T09:47:50.943Z,13.47
2017-04-27T09:49:03.493Z,13.57
2017-04-27T09:50:16.060Z,13.42
2017-04-27T09:51:28.576Z,13.47
2017-04-27T09:52:41.107Z,13.5
2017-04-27T09:53:53.668Z,13.5
2017-04-27T09:55:06.186Z,13.52
2017-04-27T09:56:18.411Z,13.58
2017-04-27T09:57:30.958Z,13.58
2017-04-27T09:58:43.199Z,13.57
2017-04-27T09:59:55.744Z,13.57
2017-04-27T10:01:08.280Z,13.64
2017-04-27T10:02:20.240Z,13.76
2017-04-27T10:03:32.457Z,13.73
2017-04-27T10:04:44.982Z,13.83
2017-04-27T10:05:57.510Z,13.95
2017-04-27T10:07:09.730Z,14.07
2017-04-27T10:08:22.302Z,14.22
2017-04-27T10:09:34.891Z,14.43
2017-04-27T10:10:47.447Z,14.53
2017-04-27T10:11:59.711Z,14.52
2017-04-27T10:13:12.265Z,14.66
2017-04-27T10:14:24.274Z,14.68
2017-04-27T10:15:36.819Z,14.77
2017-04-27T10:16:49.351Z,15
2017-04-27T10:18:01.916Z,15.27
2017-04-27T10:19:13.837Z,15.48
2017-04-27T10:20:26.362Z,15.72
2017-04-27T10:21:38.553Z,15.94
2017-04-27T10:22:50.802Z,16.24
2017-04-27T10:24:03.346Z,16.49
2017-04-27T10:25:15.583Z,16.76
2017-04-27T10:26:28.142Z,17.12
2017-04-27T10:27:40.730Z,17.46
2017-04-27T10:28:53.271Z,17.75
2017-04-27T10:30:05.853Z,18.12
2017-04-27T10:31:17.795Z,18.28
2017-04-27T10:32:30.319Z,18.51
2017-04-27T10:33:42.609Z,18.76
2017-04-27T10:34:55.176Z,18.96
2017-04-27T10:36:07.730Z,19.17
2017-04-27T10:37:20.296Z,19.2
2017-04-27T10:38:32.851Z,19.39
2017-04-27T10:39:45.363Z,19.49
2017-04-27T10:40:57.931Z,19.75
2017-04-27T10:42:10.205Z,20.07
2017-04-27T10:43:22.759Z,20.15
2017-04-27T10:44:34.722Z,20.22
2017-04-27T10:45:47.001Z,20.32
2017-04-27T10:46:59.584Z,20.58
2017-04-27T10:48:12.106Z,20.83
2017-04-27T10:49:24.658Z,21.03
2017-04-27T10:50:37.236Z,21.13
2017-04-27T10:51:49.803Z,21.22
2017-04-27T10:53:02.039Z,21.44
2017-04-27T10:54:14.597Z,21.53
2017-04-27T10:55:27.167Z,21.43
2017-04-27T10:56:39.732Z,21.33
2017-04-27T10:57:52.298Z,21.38
2017-04-27T10:59:04.847Z,21.54
2017-04-27T11:00:17.391Z,21.8
2017-04-27T11:01:29.668Z,22.03
2017-04-27T11:02:42.233Z,22.26
2017-04-27T11:03:54.781Z,22.43
2017-04-27T11:05:07.353Z,22.61
2017-04-27T11:06:19.919Z,22.92
2017-04-27T11:07:32.469Z,22.96
2017-04-27T11:08:44.997Z,23.04
2017-04-27T11:09:57.564Z,23.14
2017-04-27T11:11:09.811Z,23.18
2017-04-27T11:12:22.352Z,22.96
2017-04-27T11:13:34.899Z,22.86
2017-04-27T11:14:47.466Z,22.78
2017-04-27T11:16:00.019Z,22.76
2017-04-27T11:17:12.570Z,22.76
2017-04-27T11:18:25.389Z,22.7
2017-04-27T11:19:37.932Z,22.65
2017-04-27T11:20:50.495Z,22.56
2017-04-27T11:22:03.053Z,22.55
2017-04-27T11:23:15.321Z,22.58
2017-04-27T11:24:37.059Z,22.58
2017-04-27T11:25:49.307Z,22.59
2017-04-27T11:27:01.850Z,22.53
2017-04-27T11:28:13.796Z,22.43
2017-04-27T11:29:26.080Z,22.38
2017-04-27T11:30:38.644Z,22.4
2017-04-27T11:31:51.190Z,22.4
2017-04-27T11:33:03.740Z,22.46
2017-04-27T11:34:15.989Z,22.58
2017-04-27T11:35:28.549Z,22.89
2017-04-27T11:36:54.494Z,23.17
2017-04-27T11:38:07.071Z,23.37
2017-04-27T11:39:18.720Z,23.73
2017-04-27T11:40:31.279Z,23.92
2017-04-27T11:41:43.835Z,24.04
2017-04-27T11:42:56.408Z,24.1
2017-04-27T11:44:08.950Z,24.06
2017-04-27T11:45:21.174Z,24.09
2017-04-27T11:46:33.713Z,23.79
2017-04-27T11:47:45.980Z,23.85
2017-04-27T11:48:58.532Z,23.71
2017-04-27T11:50:11.100Z,23.69
2017-04-27T11:51:23.370Z,23.64
2017-04-27T11:52:35.899Z,23.56
2017-04-27T11:53:48.442Z,23.34
2017-04-27T11:55:00.983Z,23.11
2017-04-27T11:56:12.929Z,23.02
2017-04-27T11:57:25.474Z,22.86
2017-04-27T11:58:38.046Z,22.65
2017-04-27T11:59:50.598Z,22.55
2017-04-27T12:01:03.134Z,22.58
2017-04-27T12:02:15.730Z,22.43
2017-04-27T12:03:28.301Z,22.44
2017-04-27T12:04:40.858Z,22.33
2017-04-27T12:05:53.428Z,22.14
2017-04-27T12:07:05.677Z,21.77
2017-04-27T12:08:17.344Z,21.53
2017-04-27T12:09:29.888Z,21.5
2017-04-27T12:10:42.451Z,21.58
2017-04-27T12:11:54.705Z,21.62
2017-04-27T12:13:07.255Z,21.74
2017-04-27T12:14:19.843Z,21.96
2017-04-27T12:15:32.388Z,22.04
2017-04-27T12:16:44.967Z,22.12
2017-04-27T12:17:57.552Z,22.33
2017-04-27T12:19:09.812Z,22.55
2017-04-27T12:20:22.376Z,22.63
2017-04-27T12:21:34.625Z,22.59
2017-04-27T12:22:47.185Z,22.44
2017-04-27T12:23:59.439Z,22.28
2017-04-27T12:25:11.406Z,22.25
2017-04-27T12:26:23.977Z,22.31
2017-04-27T12:27:36.220Z,22.34
2017-04-27T12:28:48.794Z,22.03
2017-04-27T12:30:01.335Z,22.01
2017-04-27T12:31:13.586Z,22.26
2017-04-27T12:32:26.165Z,22.33
2017-04-27T12:33:38.752Z,22.46
2017-04-27T12:34:51.281Z,22.76
2017-04-27T12:36:03.830Z,22.88
2017-04-27T12:37:16.394Z,23.02
2017-04-27T12:38:29.182Z,22.95
2017-04-27T12:39:41.453Z,22.92
2017-04-27T12:40:54.003Z,22.98
2017-04-27T12:42:06.552Z,23.04
2017-04-27T12:43:19.090Z,23.06
2017-04-27T12:44:31.345Z,23.18
2017-04-27T12:45:43.886Z,23.17
2017-04-27T12:46:56.432Z,23.32
2017-04-27T12:48:08.692Z,23.36
2017-04-27T12:49:21.271Z,23.4
2017-04-27T12:50:33.848Z,23.54
2017-04-27T12:51:46.095Z,23.51
2017-04-27T12:52:58.684Z,23.55
2017-04-27T12:54:10.938Z,23.4
2017-04-27T12:55:23.504Z,23.2
2017-04-27T12:56:35.776Z,22.92
2017-04-27T12:57:48.017Z,22.84
2017-04-27T12:59:00.542Z,22.71
2017-04-27T13:00:13.092Z,22.59
2017-04-27T13:01:25.662Z,22.46
2017-04-27T13:02:38.204Z,22.51
2017-04-27T13:03:50.750Z,22.34
2017-04-27T13:05:03.005Z,22.14
2017-04-27T13:06:15.275Z,22.18
2017-04-27T13:07:27.570Z,22.06
2017-04-27T13:08:40.131Z,22.07
2017-04-27T13:09:52.678Z,22.18
2017-04-27T13:11:04.896Z,22.31
2017-04-27T13:12:16.853Z,22.26
2017-04-27T13:13:29.425Z,22.28
2017-04-27T13:14:41.989Z,22.33
2017-04-27T13:15:54.541Z,22.26
2017-04-27T13:17:07.080Z,22.1
2017-04-27T13:18:19.331Z,22.04
2017-04-27T13:19:31.868Z,21.84
2017-04-27T13:20:44.443Z,21.53
2017-04-27T13:21:57.236Z,21.25
2017-04-27T13:23:09.795Z,21.15
2017-04-27T13:24:22.339Z,20.96
2017-04-27T13:25:34.898Z,20.68
2017-04-27T13:26:47.450Z,20.49
2017-04-27T13:28:00.001Z,20.39
2017-04-27T13:29:12.246Z,20.18
2017-04-27T13:30:24.842Z,20.02
2017-04-27T13:31:37.405Z,19.94
2017-04-27T13:32:49.932Z,19.77
2017-04-27T13:34:02.502Z,19.53
2017-04-27T13:35:15.067Z,19.42
2017-04-27T13:36:27.311Z,19.35
2017-04-27T13:37:39.869Z,19.44
2017-04-27T13:38:52.139Z,19.3
2017-04-27T13:40:04.699Z,19.26
2017-04-27T13:41:16.948Z,19.24
2017-04-27T13:42:29.493Z,19.12
2017-04-27T13:43:41.740Z,19.16
2017-04-27T13:44:54.282Z,18.98
2017-04-27T13:46:06.504Z,18.96
2017-04-27T13:47:18.774Z,18.86
2017-04-27T13:48:31.324Z,18.81
2017-04-27T13:49:43.853Z,18.64
2017-04-27T13:50:56.396Z,18.52
2017-04-27T13:52:08.643Z,18.45
2017-04-27T13:53:21.187Z,18.27
2017-04-27T13:54:33.758Z,18.09
2017-04-27T13:55:46.307Z,17.95
2017-04-27T13:56:58.865Z,17.8
2017-04-27T13:58:11.102Z,17.69
2017-04-27T13:59:23.683Z,17.47
2017-04-27T14:00:35.632Z,17.44
2017-04-27T14:01:47.876Z,17.39
2017-04-27T14:03:00.106Z,17.27
2017-04-27T14:04:12.350Z,17.27
2017-04-27T14:05:24.903Z,17.23
2017-04-27T14:06:37.135Z,17.13
2017-04-27T14:07:49.709Z,17.14
2017-04-27T14:09:02.258Z,17.14
2017-04-27T14:10:14.179Z,17.05
2017-04-27T14:11:26.406Z,17.01
2017-04-27T14:12:38.645Z,17.01
2017-04-27T14:13:50.883Z,16.91
2017-04-27T14:15:03.440Z,16.8
2017-04-27T14:16:15.655Z,16.79
2017-04-27T14:17:27.901Z,16.73
2017-04-27T14:18:40.434Z,16.61
2017-04-27T14:19:53.000Z,16.54
2017-04-27T14:21:05.289Z,16.49
2017-04-27T14:22:17.232Z,16.58
2017-04-27T14:23:29.778Z,16.37
2017-04-27T14:24:42.297Z,16.43
2017-04-27T14:25:54.219Z,16.29
2017-04-27T14:27:06.466Z,16.22
2017-04-27T14:28:18.726Z,16.26
2017-04-27T14:29:31.289Z,16.26
2017-04-27T14:30:43.531Z,16.18
2017-04-27T14:31:55.773Z,16.12
2017-04-27T14:33:08.029Z,16.21
2017-04-27T14:34:20.582Z,16.16
2017-04-27T14:35:33.148Z,16.16
2017-04-27T14:36:45.692Z,16.09
2017-04-27T14:37:58.162Z,16.16
2017-04-27T14:39:10.409Z,16.17
2017-04-27T14:40:22.673Z,16.13
2017-04-27T14:41:35.204Z,16.09
2017-04-27T14:42:47.765Z,16.09
2017-04-27T14:44:00.308Z,16.05
2017-04-27T14:45:12.239Z,16.18
2017-04-27T14:46:24.782Z,16.09
2017-04-27T14:47:36.983Z,16.03
2017-04-27T14:48:49.549Z,15.94
2017-04-27T14:50:02.090Z,15.91
2017-04-27T14:51:14.037Z,15.88
2017-04-27T14:52:26.561Z,15.96
2017-04-27T14:53:39.108Z,15.91
2017-04-27T14:54:51.646Z,15.85
2017-04-27T14:56:03.942Z,15.81
2017-04-27T14:57:16.188Z,15.7
2017-04-27T14:58:28.733Z,15.69
2017-04-27T14:59:41.262Z,15.6
2017-04-27T15:00:53.800Z,15.55
2017-04-27T15:02:06.321Z,15.5
2017-04-27T15:03:18.557Z,15.32
2017-04-27T15:04:31.093Z,15.35
2017-04-27T15:05:43.633Z,15.37
2017-04-27T15:06:55.893Z,15.29
2017-04-27T15:08:08.187Z,15.33
2017-04-27T15:09:20.132Z,15.32
2017-04-27T15:10:32.653Z,15.27
2017-04-27T15:11:44.888Z,15.23
2017-04-27T15:12:57.433Z,15.26
2017-04-27T15:14:09.684Z,15.05
2017-04-27T15:15:21.630Z,15.05
2017-04-27T15:16:34.181Z,15.07
2017-04-27T15:17:46.407Z,15.02
2017-04-27T15:18:58.941Z,14.94
2017-04-27T15:20:11.167Z,14.89
2017-04-27T15:21:23.689Z,14.79
2017-04-27T15:22:36.210Z,14.73
2017-04-27T15:23:48.765Z,14.68
2017-04-27T15:25:01.347Z,14.77
2017-04-27T15:26:13.877Z,14.67
2017-04-27T15:27:26.097Z,14.66
2017-04-27T15:28:38.639Z,14.63
2017-04-27T15:29:50.880Z,14.59
2017-04-27T15:31:03.434Z,14.61
2017-04-27T15:32:15.676Z,14.59
2017-04-27T15:33:28.189Z,14.52
2017-04-27T15:34:40.394Z,14.37
2017-04-27T15:35:52.914Z,14.45
2017-04-27T15:37:04.863Z,14.44
2017-04-27T15:38:17.126Z,14.48
2017-04-27T15:39:29.677Z,14.48
2017-04-27T15:40:42.201Z,14.53
2017-04-27T15:41:54.743Z,14.51
2017-04-27T15:43:07.531Z,14.58
2017-04-27T15:44:19.766Z,14.52
2017-04-27T15:45:32.005Z,14.53
2017-04-27T15:46:44.577Z,14.63
2017-04-27T15:47:57.123Z,14.51
2017-04-27T15:49:09.369Z,14.51
2017-04-27T15:50:21.599Z,14.56